• Join FlightAware (Why Join?)
  • Login
  • US Flag GB Flag 
11:22 EST


 

Airport Tracker/Info


-or-


 

Live Flight TrackerFlight Track Log ✈ CTL309 ✈ 26-Apr-2013 ✈ KOSU - KHAO

Flight Track Log - Related Links

Times and Time Zones

All times are in EDT time to prevent confusion due to time zone crossing. See the CTL309 flight status page for this flight to view local times or setup timezone preferences in your user account.

Time Position Orientation Groundspeed Altitude Reporting Facility
EDT Latitude Longitude Course Direction KTS MPH feet Rate Location/Type
03:31 40.0672 -83.1272 243° Southwest 146 168 1,700  Level Indianapolis Center
03:32 40.0444 -83.1844 243° Southwest 163 188 2,400 660 Climbing Indianapolis Center
03:33 40.0361 -83.1986 232° Southwest 163 188 2,700 540 Climbing Indianapolis Center
03:33 40.0158 -83.2356 234° Southwest 167 192 3,000 480 Climbing Indianapolis Center
03:34 40.0086 -83.2483 234° Southwest 164 189 3,200 480 Climbing Indianapolis Center
03:34 39.9892 -83.2842 235° Southwest 168 193 3,500 480 Climbing Indianapolis Center
03:35 39.9822 -83.2983 237° Southwest 166 191 3,700 480 Climbing Indianapolis Center
03:35 39.9625 -83.3381 237° Southwest 171 197 4,000 300 Climbing Indianapolis Center
03:36 39.9558 -83.3506 235° Southwest 169 194 4,000  Level Indianapolis Center
03:36 39.9358 -83.3894 236° Southwest 173 199 4,000  Level Indianapolis Center
03:37 39.9300 -83.4039 242° Southwest 171 197 4,000  Level Indianapolis Center
03:37 39.9108 -83.4433 238° Southwest 171 197 4,000  Level Indianapolis Center
03:38 39.9047 -83.4575 241° Southwest 173 199 4,000  Level Indianapolis Center
03:38 39.8883 -83.4950 240° Southwest 168 193 4,000  Level Indianapolis Center
03:39 39.8822 -83.5097 242° Southwest 171 197 4,000 60 Level Indianapolis Center
03:39 39.8636 -83.5464 237° Southwest 168 193 4,100  Climbing Indianapolis Center
03:40 39.8578 -83.5603 241° Southwest 169 194 4,000 -120 Descending Indianapolis Center
03:40 39.8367 -83.6003 236° Southwest 171 197 4,000  Level Indianapolis Center
03:41 39.8317 -83.6119 241° Southwest 169 194 4,000  Level Indianapolis Center
03:41 39.8119 -83.6514 237° Southwest 170 196 4,000  Level Indianapolis Center
03:42 39.8067 -83.6633 240° Southwest 168 193 4,000  Level Indianapolis Center
03:42 39.7894 -83.7003 239° Southwest 163 188 4,000  Level Indianapolis Center
03:43 39.7825 -83.7131 235° Southwest 165 190 4,000  Level Indianapolis Center
03:43 39.7625 -83.7511 236° Southwest 164 189 4,000  Level Indianapolis Center
03:44 39.7578 -83.7625 242° Southwest 163 188 4,000  Level Indianapolis Center
03:44 39.7378 -83.8022 237° Southwest 163 188 4,000 60 Level Indianapolis Center
03:45 39.7317 -83.8125 232° Southwest 164 189 4,100 60 Climbing Indianapolis Center
03:45 39.7131 -83.8506 238° Southwest 164 189 4,100 -120 Level Indianapolis Center
03:46 39.7061 -83.8619 232° Southwest 164 189 4,000 -120 Descending Indianapolis Center
03:46 39.6864 -83.8989 235° Southwest 165 190 4,000  Level Indianapolis Center
03:47 39.6806 -83.9117 239° Southwest 164 189 4,000  Level Indianapolis Center
03:47 39.6617 -83.9497 237° Southwest 164 189 4,000  Level Indianapolis Center
03:48 39.6556 -83.9619 237° Southwest 164 189 4,000  Level Indianapolis Center
03:48 39.6367 -84.0008 238° Southwest 163 188 4,000  Level Indianapolis Center
03:49 39.6311 -84.0117 236° Southwest 163 188 4,000  Level Indianapolis Center
03:49 39.6122 -84.0464 235° Southwest 162 186 4,000  Level Indianapolis Center
03:50 39.5875 -84.0947 236° Southwest 163 188 4,000  Level Indianapolis Center
03:52 39.5589 -84.1511 237° Southwest 163 188 4,000  Level Indianapolis Center
03:54 39.5126 -84.2259 231° Southwest  Level FlightAware Approximate
04:01 39.3500 -84.5167 229° Southwest  Level FlightAware Approximate
04:02 39.3638 -84.5219 229° Southwest  Level Estimated